Appleton, Washington
Current Conditions -  °F | °C
As of 2:09 AM on Sunday 25 Jan 2015 (Local Time) from KDLS Reporting Station
Moderate Fog Moderate Fog  
Wind Chill: 47°   Ceiling: 200
Heat Index: 47°   Visibility: 0.5mi
Dew Point: 45°   Wind: 0mph
Humidity: 93%   Direction: NA
Pressure: 30.25"   Gusts: NA
Location:  45.81°N, 121.27°W
Report Text: KDLS 251009Z AUTO 00000KT 1/2SM FG OVC002 08/07 A3025 RMK AO2 T00830072
Loading
Personal Weather Stations






























Interactive Weather Map New forecast layout! Learn more

10-Day Weather Forecast

Advertisements
Track Severe Weather on mobile